createdAt,value
2023-04-22T00:00:52.130Z,7.20
2023-04-22T00:01:52.027Z,7.20
2023-04-22T00:02:52.156Z,7.20
2023-04-22T00:03:52.197Z,7.20
2023-04-22T00:04:52.200Z,7.23
2023-04-22T00:05:52.128Z,7.20
2023-04-22T00:06:52.019Z,7.21
2023-04-22T00:07:51.960Z,7.21
2023-04-22T00:08:51.962Z,7.17
2023-04-22T00:09:51.917Z,7.16
2023-04-22T00:10:51.925Z,7.17
2023-04-22T00:11:51.953Z,7.17
2023-04-22T00:12:51.916Z,7.17
2023-04-22T00:13:51.893Z,7.17
2023-04-22T00:14:51.907Z,7.20
2023-04-22T00:15:51.945Z,7.20
2023-04-22T00:16:51.855Z,7.17
2023-04-22T00:17:51.840Z,7.17
2023-04-22T00:18:51.880Z,7.16
2023-04-22T00:19:51.806Z,7.20
2023-04-22T00:20:51.826Z,7.20
2023-04-22T00:21:51.825Z,7.23
2023-04-22T00:22:51.818Z,7.21
2023-04-22T00:23:51.787Z,7.20
2023-04-22T00:24:51.782Z,7.20
2023-04-22T00:25:51.752Z,7.21
2023-04-22T00:26:51.745Z,7.17
2023-04-22T00:27:51.719Z,7.21
2023-04-22T00:28:51.721Z,7.20
2023-04-22T00:29:51.712Z,7.17
2023-04-22T00:30:51.787Z,7.20
2023-04-22T00:31:51.717Z,7.21
2023-04-22T00:32:51.684Z,7.17
2023-04-22T00:33:51.649Z,7.20
2023-04-22T00:34:51.660Z,7.17
2023-04-22T00:35:51.619Z,7.17
2023-04-22T00:36:51.629Z,7.16
2023-04-22T00:37:51.662Z,7.16
2023-04-22T00:38:51.602Z,7.16
2023-04-22T00:39:51.613Z,7.16
2023-04-22T00:40:51.584Z,7.16
2023-04-22T00:41:51.621Z,7.17
2023-04-22T00:42:51.600Z,7.15
2023-04-22T00:43:51.523Z,7.16
2023-04-22T00:44:51.549Z,7.20
2023-04-22T00:45:51.559Z,7.17
2023-04-22T00:46:51.583Z,7.20
2023-04-22T00:47:51.543Z,7.20
2023-04-22T00:48:51.523Z,7.20
2023-04-22T00:49:51.457Z,7.20
2023-04-22T00:50:52.437Z,7.17
2023-04-22T00:51:51.452Z,7.17
2023-04-22T00:52:51.478Z,7.17
2023-04-22T00:53:51.407Z,7.17
2023-04-22T00:54:51.451Z,7.17
2023-04-22T00:55:51.394Z,7.17
2023-04-22T00:56:51.443Z,7.16
2023-04-22T00:57:51.365Z,7.16
2023-04-22T00:58:51.376Z,7.17
2023-04-22T00:59:51.369Z,7.16
2023-04-22T01:00:51.469Z,7.15
2023-04-22T01:01:51.375Z,7.16
2023-04-22T01:02:51.432Z,7.16
2023-04-22T01:03:51.371Z,7.16
2023-04-22T01:04:51.348Z,7.16
2023-04-22T01:05:51.333Z,7.16
2023-04-22T01:06:51.303Z,7.16
2023-04-22T01:07:51.289Z,7.16
2023-04-22T01:08:51.310Z,7.15
2023-04-22T01:09:51.243Z,7.16
2023-04-22T01:10:51.250Z,7.13
2023-04-22T01:11:51.226Z,7.13
2023-04-22T01:12:51.240Z,7.13
2023-04-22T01:13:51.179Z,7.12
2023-04-22T01:14:51.227Z,7.13
2023-04-22T01:15:51.165Z,7.13
2023-04-22T01:16:51.231Z,7.12
2023-04-22T01:17:51.164Z,7.12
2023-04-22T01:18:51.215Z,7.13
2023-04-22T01:19:51.135Z,7.13
2023-04-22T01:20:51.140Z,7.13
2023-04-22T01:21:51.105Z,7.15
2023-04-22T01:22:51.101Z,7.13
2023-04-22T01:23:51.105Z,7.15
2023-04-22T01:24:51.125Z,7.15
2023-04-22T01:25:51.044Z,7.15
2023-04-22T01:26:51.107Z,7.16
2023-04-22T01:27:51.024Z,7.15
2023-04-22T01:28:51.029Z,7.15
2023-04-22T01:29:51.014Z,7.16
2023-04-22T01:30:51.075Z,7.16
2023-04-22T01:31:51.056Z,7.17
2023-04-22T01:32:51.937Z,7.17
2023-04-22T01:33:50.958Z,7.16
2023-04-22T01:34:50.971Z,7.17
2023-04-22T01:35:50.976Z,7.20
2023-04-22T01:36:50.975Z,7.21
2023-04-22T01:37:50.919Z,7.23
2023-04-22T01:38:50.923Z,7.21
2023-04-22T01:39:50.895Z,7.21
2023-04-22T01:40:50.938Z,7.23
2023-04-22T01:41:50.880Z,7.21
2023-04-22T01:42:50.937Z,7.23
2023-04-22T01:43:50.872Z,7.25
2023-04-22T01:44:50.860Z,7.24
2023-04-22T01:45:50.904Z,7.25
2023-04-22T01:46:50.848Z,7.27
2023-04-22T01:47:50.958Z,7.30
2023-04-22T01:48:50.826Z,7.30
2023-04-22T01:49:50.868Z,7.31
2023-04-22T01:50:50.814Z,7.32
2023-04-22T01:51:50.784Z,7.32
2023-04-22T01:52:50.820Z,7.31
2023-04-22T01:53:50.746Z,7.32
2023-04-22T01:54:50.781Z,7.31
2023-04-22T01:55:50.735Z,7.31
2023-04-22T01:56:50.714Z,7.32
2023-04-22T01:57:50.686Z,7.32
2023-04-22T01:58:50.690Z,7.34
2023-04-22T01:59:50.681Z,7.34
2023-04-22T02:00:50.743Z,7.34
2023-04-22T02:01:50.717Z,7.35
2023-04-22T02:02:50.795Z,7.34
2023-04-22T02:03:50.724Z,7.37
2023-04-22T02:04:50.721Z,7.35
2023-04-22T02:05:50.611Z,7.35
2023-04-22T02:06:50.615Z,7.34
2023-04-22T02:07:51.013Z,7.32
2023-04-22T02:08:50.600Z,7.32
2023-04-22T02:09:50.985Z,7.31
2023-04-22T02:10:50.565Z,7.31
2023-04-22T02:11:50.577Z,7.31
2023-04-22T02:12:50.560Z,7.30
2023-04-22T02:13:50.509Z,7.28
2023-04-22T02:14:50.524Z,7.30
2023-04-22T02:15:50.568Z,7.30
2023-04-22T02:16:50.500Z,7.30
2023-04-22T02:17:50.485Z,7.28
2023-04-22T02:18:50.536Z,7.30
2023-04-22T02:19:50.499Z,7.30
2023-04-22T02:20:50.456Z,7.30
2023-04-22T02:21:50.402Z,7.28
2023-04-22T02:22:50.421Z,7.30
2023-04-22T02:23:50.406Z,7.28
2023-04-22T02:24:50.441Z,7.28
2023-04-22T02:25:50.433Z,7.27
2023-04-22T02:26:50.367Z,7.28
2023-04-22T02:27:50.339Z,7.28
2023-04-22T02:28:50.396Z,7.27
2023-04-22T02:29:50.319Z,7.27
2023-04-22T02:30:50.335Z,7.28
2023-04-22T02:31:50.541Z,7.28
2023-04-22T02:32:50.363Z,7.30
2023-04-22T02:33:50.445Z,7.30
2023-04-22T02:34:50.287Z,7.28
2023-04-22T02:35:50.281Z,7.27
2023-04-22T02:36:50.273Z,7.28
2023-04-22T02:37:50.248Z,7.27
2023-04-22T02:38:50.316Z,7.27
2023-04-22T02:39:50.210Z,7.28
2023-04-22T02:40:50.293Z,7.27
2023-04-22T02:41:50.187Z,7.27
2023-04-22T02:42:50.199Z,7.27
2023-04-22T02:43:50.208Z,7.25
2023-04-22T02:44:50.156Z,7.27
2023-04-22T02:45:50.166Z,7.25
2023-04-22T02:46:50.198Z,7.27
2023-04-22T02:47:50.216Z,7.27
2023-04-22T02:48:50.344Z,7.24
2023-04-22T02:49:50.091Z,7.27
2023-04-22T02:50:50.119Z,7.27
2023-04-22T02:51:50.080Z,7.27
2023-04-22T02:52:50.124Z,7.25
2023-04-22T02:53:50.142Z,7.25
2023-04-22T02:54:50.062Z,7.27
2023-04-22T02:55:50.017Z,7.25
2023-04-22T02:56:50.103Z,7.27
2023-04-22T02:57:49.992Z,7.25
2023-04-22T02:58:50.036Z,7.25
2023-04-22T02:59:49.978Z,7.24
2023-04-22T03:00:50.127Z,7.24
2023-04-22T03:01:49.971Z,7.23
2023-04-22T03:02:50.073Z,7.24
2023-04-22T03:03:50.256Z,7.24
2023-04-22T03:04:50.032Z,7.25
2023-04-22T03:05:49.929Z,7.27
2023-04-22T03:06:50.649Z,7.25
2023-04-22T03:07:49.889Z,7.27
2023-04-22T03:08:49.915Z,7.27
2023-04-22T03:09:50.725Z,7.28
2023-04-22T03:10:49.896Z,7.28
2023-04-22T03:11:49.835Z,7.28
2023-04-22T03:12:49.869Z,7.28
2023-04-22T03:13:49.818Z,7.28
2023-04-22T03:14:49.824Z,7.28
2023-04-22T03:15:49.802Z,7.30
2023-04-22T03:16:49.856Z,7.30
2023-04-22T03:17:49.875Z,7.30
2023-04-22T03:18:49.793Z,7.30
2023-04-22T03:19:49.773Z,7.31
2023-04-22T03:20:49.798Z,7.30
2023-04-22T03:21:49.717Z,7.32
2023-04-22T03:22:49.736Z,7.32
2023-04-22T03:23:49.757Z,7.34
2023-04-22T03:24:49.722Z,7.32
2023-04-22T03:25:49.673Z,7.34
2023-04-22T03:26:49.696Z,7.32
2023-04-22T03:27:49.681Z,7.32
2023-04-22T03:28:49.672Z,7.31
2023-04-22T03:29:49.632Z,7.31
2023-04-22T03:30:49.711Z,7.32
2023-04-22T03:31:49.740Z,7.32
2023-04-22T03:32:49.712Z,7.34
2023-04-22T03:33:49.573Z,7.34
2023-04-22T03:34:49.616Z,7.37
2023-04-22T03:35:49.600Z,7.39
2023-04-22T03:36:49.600Z,7.40
2023-04-22T03:37:49.557Z,7.39
2023-04-22T03:38:49.545Z,7.39
2023-04-22T03:39:49.554Z,7.40
2023-04-22T03:40:51.078Z,7.42
2023-04-22T03:41:49.500Z,7.40
2023-04-22T03:42:49.580Z,7.40
2023-04-22T03:43:49.507Z,7.42
2023-04-22T03:44:49.480Z,7.39
2023-04-22T03:45:49.497Z,7.40
2023-04-22T03:46:49.467Z,7.40
2023-04-22T03:47:49.499Z,7.39
2023-04-22T03:48:49.468Z,7.39
2023-04-22T03:49:49.392Z,7.40
2023-04-22T03:50:49.444Z,7.40
2023-04-22T03:51:49.415Z,7.42
2023-04-22T03:52:49.387Z,7.43
2023-04-22T03:53:49.410Z,7.46
2023-04-22T03:54:49.383Z,7.48
2023-04-22T03:55:49.349Z,7.49
2023-04-22T03:56:49.365Z,7.50
2023-04-22T03:57:49.324Z,7.52
2023-04-22T03:58:49.399Z,7.52
2023-04-22T03:59:49.333Z,7.55
2023-04-22T04:00:49.297Z,7.60
2023-04-22T04:01:49.290Z,7.61
2023-04-22T04:02:49.429Z,7.61
2023-04-22T04:03:49.501Z,7.63
2023-04-22T04:04:49.607Z,7.64
2023-04-22T04:05:49.334Z,7.64
2023-04-22T04:06:49.227Z,7.64
2023-04-22T04:07:49.220Z,7.67
2023-04-22T04:08:49.185Z,7.67
2023-04-22T04:09:49.200Z,7.67
2023-04-22T04:10:50.047Z,7.68
2023-04-22T04:11:49.223Z,7.69
2023-04-22T04:12:49.138Z,7.72
2023-04-22T04:13:49.157Z,7.72
2023-04-22T04:14:49.150Z,7.75
2023-04-22T04:15:49.138Z,7.77
2023-04-22T04:16:49.123Z,7.79
2023-04-22T04:17:49.184Z,7.79
2023-04-22T04:18:49.140Z,7.80
2023-04-22T04:19:49.084Z,7.83
2023-04-22T04:20:49.071Z,7.83
2023-04-22T04:21:49.058Z,7.83
2023-04-22T04:22:49.014Z,7.85
2023-04-22T04:23:49.045Z,7.83
2023-04-22T04:24:49.002Z,7.83
2023-04-22T04:25:49.018Z,7.85
2023-04-22T04:26:49.006Z,7.86
2023-04-22T04:27:48.993Z,7.89
2023-04-22T04:28:48.962Z,7.86
2023-04-22T04:29:48.972Z,7.87
2023-04-22T04:30:48.948Z,7.86
2023-04-22T04:31:49.880Z,7.85
2023-04-22T04:32:49.009Z,7.85
2023-04-22T04:33:48.936Z,7.86
2023-04-22T04:34:49.106Z,7.86
2023-04-22T04:35:48.921Z,7.83
2023-04-22T04:36:48.975Z,7.85
2023-04-22T04:37:48.872Z,7.82
2023-04-22T04:38:48.850Z,7.85
2023-04-22T04:39:48.878Z,7.85
2023-04-22T04:40:48.837Z,7.83
2023-04-22T04:43:00.459Z,7.85
2023-04-22T04:44:00.428Z,7.83
2023-04-22T04:45:00.450Z,7.83
2023-04-22T04:46:00.395Z,7.83
2023-04-22T04:47:00.450Z,7.85
2023-04-22T04:48:00.448Z,7.83
2023-04-22T04:49:00.407Z,7.83
2023-04-22T04:50:00.356Z,7.83
2023-04-22T04:51:00.415Z,7.86
2023-04-22T04:52:01.312Z,7.87
2023-04-22T04:53:01.234Z,7.86
2023-04-22T04:54:00.357Z,7.86
2023-04-22T04:55:00.342Z,7.87
2023-04-22T04:56:00.829Z,7.87
2023-04-22T04:57:00.362Z,7.87
2023-04-22T04:58:00.280Z,7.89
2023-04-22T04:59:00.288Z,7.89
2023-04-22T05:00:00.274Z,7.92
2023-04-22T05:01:00.362Z,7.92
2023-04-22T05:02:00.257Z,7.92
2023-04-22T05:03:00.351Z,7.93
2023-04-22T05:04:00.413Z,7.97
2023-04-22T05:05:00.313Z,7.98
2023-04-22T05:06:00.186Z,7.98
2023-04-22T05:07:00.219Z,8.00
2023-04-22T05:08:00.183Z,8.01
2023-04-22T05:09:00.171Z,8.04
2023-04-22T05:10:00.192Z,8.05
2023-04-22T05:11:00.163Z,8.10
2023-04-22T05:12:00.182Z,8.11
2023-04-22T05:13:01.356Z,8.12
2023-04-22T05:14:00.153Z,8.15
2023-04-22T05:15:00.136Z,8.18
2023-04-22T05:16:00.121Z,8.19
2023-04-22T05:17:00.288Z,8.22
2023-04-22T05:18:00.125Z,8.26
2023-04-22T05:19:00.091Z,8.26
2023-04-22T05:20:00.141Z,8.29
2023-04-22T05:21:00.068Z,8.33
2023-04-22T05:22:00.012Z,8.30
2023-04-22T05:23:00.032Z,8.33
2023-04-22T05:24:00.418Z,8.36
2023-04-22T05:25:00.008Z,8.34
2023-04-22T05:26:00.076Z,8.36
2023-04-22T05:27:00.003Z,8.38
2023-04-22T05:27:59.963Z,8.40
2023-04-22T05:28:59.972Z,8.43
2023-04-22T05:29:59.951Z,8.45
2023-04-22T05:30:59.999Z,8.47
2023-04-22T05:32:00.034Z,8.50
2023-04-22T05:32:59.942Z,8.53
2023-04-22T05:33:59.906Z,8.55
2023-04-22T05:34:59.926Z,8.59
2023-04-22T05:35:59.899Z,8.62
2023-04-22T05:36:59.874Z,8.65
2023-04-22T05:37:59.940Z,8.66
2023-04-22T05:38:59.856Z,8.71
2023-04-22T05:39:59.915Z,8.74
2023-04-22T05:40:59.824Z,8.79
2023-04-22T05:41:59.836Z,8.83
2023-04-22T05:42:59.792Z,8.86
2023-04-22T05:43:59.846Z,8.91
2023-04-22T05:44:59.784Z,8.95
2023-04-22T05:45:59.884Z,8.98
2023-04-22T05:46:59.744Z,9.04
2023-04-22T05:47:59.802Z,9.08
2023-04-22T05:48:59.738Z,9.14
2023-04-22T05:49:59.733Z,9.17
2023-04-22T05:50:59.814Z,9.18
2023-04-22T05:51:59.708Z,9.21
2023-04-22T05:52:59.690Z,9.24
2023-04-22T05:53:59.706Z,9.28
2023-04-22T05:54:59.671Z,9.32
2023-04-22T05:55:59.671Z,9.36
2023-04-22T05:56:59.667Z,9.42
2023-04-22T05:57:59.636Z,9.42
2023-04-22T05:58:59.659Z,9.47
2023-04-22T05:59:59.614Z,9.50
2023-04-22T06:00:59.577Z,9.56
2023-04-22T06:01:59.637Z,9.60
2023-04-22T06:02:59.787Z,9.66
2023-04-22T06:03:59.939Z,9.71
2023-04-22T06:04:59.971Z,9.78
2023-04-22T06:05:59.598Z,9.83
2023-04-22T06:06:59.568Z,9.87
2023-04-22T06:07:59.537Z,9.94
2023-04-22T06:08:59.496Z,9.99
2023-04-22T06:10:04.463Z,10.04
2023-04-22T06:11:00.511Z,10.07
2023-04-22T06:11:59.496Z,10.11
2023-04-22T06:12:59.508Z,10.18
2023-04-22T06:13:59.469Z,10.25
2023-04-22T06:14:59.436Z,10.27
2023-04-22T06:15:59.450Z,10.32
2023-04-22T06:16:59.467Z,10.38
2023-04-22T06:17:59.563Z,10.45
2023-04-22T06:18:59.384Z,10.52
2023-04-22T06:19:59.397Z,10.56
2023-04-22T06:20:59.384Z,10.66
2023-04-22T06:21:59.358Z,10.74
2023-04-22T06:22:59.347Z,10.84
2023-04-22T06:23:59.345Z,10.92
2023-04-22T06:24:59.350Z,11.00
2023-04-22T06:25:59.335Z,11.15
2023-04-22T06:26:59.413Z,11.27
2023-04-22T06:27:59.303Z,11.39
2023-04-22T06:28:59.327Z,11.52
2023-04-22T06:29:59.292Z,11.61
2023-04-22T06:30:59.264Z,11.73
2023-04-22T06:31:59.266Z,11.82
2023-04-22T06:33:00.215Z,11.91
2023-04-22T06:33:59.369Z,12.02
2023-04-22T06:34:59.227Z,12.16
2023-04-22T06:35:59.238Z,12.23
2023-04-22T06:36:59.214Z,12.34
2023-04-22T06:37:59.392Z,12.45
2023-04-22T06:38:59.603Z,12.54
2023-04-22T06:39:59.166Z,12.65
2023-04-22T06:40:59.145Z,12.70
2023-04-22T06:41:59.158Z,12.77
2023-04-22T06:42:59.139Z,12.86
2023-04-22T06:43:59.115Z,12.92
2023-04-22T06:44:59.110Z,12.97
2023-04-22T06:45:59.132Z,13.04
2023-04-22T06:46:59.143Z,13.10
2023-04-22T06:47:59.118Z,13.14
2023-04-22T06:48:59.060Z,13.20
2023-04-22T06:49:59.104Z,13.23
2023-04-22T06:50:59.032Z,13.25
2023-04-22T06:51:59.023Z,13.26
2023-04-22T06:52:59.054Z,13.28
2023-04-22T06:53:59.057Z,13.29
2023-04-22T06:54:58.967Z,13.32
2023-04-22T06:55:59.007Z,13.36
2023-04-22T06:56:58.956Z,13.39
2023-04-22T06:57:58.973Z,13.45
2023-04-22T06:58:58.963Z,13.49
2023-04-22T06:59:58.966Z,13.51
2023-04-22T07:00:58.911Z,13.57
2023-04-22T07:01:58.964Z,13.63
2023-04-22T07:02:58.994Z,13.69
2023-04-22T07:03:59.030Z,13.73
2023-04-22T07:04:58.884Z,13.78
2023-04-22T07:05:59.056Z,13.84
2023-04-22T07:06:58.858Z,13.89
2023-04-22T07:07:58.862Z,13.96
2023-04-22T07:08:58.827Z,14.00
2023-04-22T07:09:58.850Z,14.07
2023-04-22T07:10:58.818Z,14.10
2023-04-22T07:11:58.849Z,14.15
2023-04-22T07:12:58.793Z,14.18
2023-04-22T07:13:58.850Z,14.20
2023-04-22T07:14:58.764Z,14.22
2023-04-22T07:15:58.846Z,14.29
2023-04-22T07:16:58.745Z,14.33
2023-04-22T07:17:58.802Z,14.35
2023-04-22T07:18:58.735Z,14.36
2023-04-22T07:19:58.727Z,14.40
2023-04-22T07:20:58.687Z,14.45
2023-04-22T07:21:58.692Z,14.46
2023-04-22T07:22:58.684Z,14.51
2023-04-22T07:23:58.706Z,14.58
2023-04-22T07:24:58.627Z,14.64
2023-04-22T07:25:58.682Z,14.68
2023-04-22T07:26:58.623Z,14.72
2023-04-22T07:27:58.635Z,14.78
2023-04-22T07:28:58.648Z,14.84
2023-04-22T07:29:58.657Z,14.92
2023-04-22T07:30:58.595Z,14.94
2023-04-22T07:31:58.607Z,14.99
2023-04-22T07:32:58.600Z,15.13
2023-04-22T07:33:58.611Z,15.21
2023-04-22T07:34:58.539Z,15.29
2023-04-22T07:35:58.569Z,15.38
2023-04-22T07:36:58.506Z,15.47
2023-04-22T07:37:58.596Z,15.51
2023-04-22T07:38:58.497Z,15.54
2023-04-22T07:39:58.650Z,15.62
2023-04-22T07:40:58.457Z,15.67
2023-04-22T07:41:58.540Z,15.72
2023-04-22T07:42:58.442Z,15.76
2023-04-22T07:43:58.463Z,15.80
2023-04-22T07:44:58.407Z,15.80
2023-04-22T07:45:58.516Z,15.78
2023-04-22T07:46:58.402Z,15.71
2023-04-22T07:48:05.511Z,15.69
2023-04-22T07:48:59.263Z,15.74
2023-04-22T07:49:58.448Z,15.74
2023-04-22T07:50:58.340Z,15.74
2023-04-22T07:51:58.351Z,15.76
2023-04-22T07:52:58.339Z,15.83
2023-04-22T07:53:58.347Z,15.86
2023-04-22T07:54:58.282Z,15.90
2023-04-22T07:55:59.305Z,15.97
2023-04-22T07:56:58.276Z,15.96
2023-04-22T07:57:58.280Z,15.96
2023-04-22T07:58:58.240Z,16.04
2023-04-22T07:59:58.293Z,16.12
2023-04-22T08:00:59.151Z,16.17
2023-04-22T08:01:58.281Z,16.25
2023-04-22T08:02:58.317Z,16.31
2023-04-22T08:03:58.423Z,16.38
2023-04-22T08:04:58.256Z,16.43
2023-04-22T08:05:58.191Z,16.49
2023-04-22T08:06:58.181Z,16.57
2023-04-22T08:07:58.155Z,16.67
2023-04-22T08:08:58.143Z,16.76
2023-04-22T08:09:58.146Z,16.86
2023-04-22T08:10:58.123Z,16.93
2023-04-22T08:11:58.169Z,17.01
2023-04-22T08:12:58.108Z,17.11
2023-04-22T08:13:58.120Z,17.18
2023-04-22T08:14:58.099Z,17.30
2023-04-22T08:15:58.103Z,17.40
2023-04-22T08:16:58.071Z,17.44
2023-04-22T08:17:58.151Z,17.44
2023-04-22T08:18:58.031Z,17.51
2023-04-22T08:19:58.192Z,17.58
2023-04-22T08:20:58.008Z,17.66
2023-04-22T08:21:58.013Z,17.77
2023-04-22T08:22:57.983Z,17.84
2023-04-22T08:23:58.002Z,17.90
2023-04-22T08:24:58.148Z,17.89
2023-04-22T08:25:57.980Z,17.89
2023-04-22T08:26:57.964Z,17.93
2023-04-22T08:27:57.955Z,17.99
2023-04-22T08:28:57.920Z,18.07
2023-04-22T08:29:57.968Z,18.10
2023-04-22T08:30:57.940Z,18.15
2023-04-22T08:31:58.086Z,18.20
2023-04-22T08:32:57.918Z,18.25
2023-04-22T08:33:57.913Z,18.32
2023-04-22T08:35:04.339Z,18.39
2023-04-22T08:35:58.863Z,18.44
2023-04-22T08:36:57.821Z,18.50
2023-04-22T08:37:57.834Z,18.48
2023-04-22T08:38:57.807Z,18.48
2023-04-22T08:39:57.841Z,18.57
2023-04-22T08:40:58.534Z,18.60
2023-04-22T08:41:58.554Z,18.65
2023-04-22T08:42:57.793Z,18.67
2023-04-22T08:43:57.820Z,18.69
2023-04-22T08:44:57.840Z,18.70
2023-04-22T08:45:57.761Z,18.75
2023-04-22T08:46:57.786Z,18.82
2023-04-22T08:47:57.768Z,18.88
2023-04-22T08:48:57.694Z,18.90
2023-04-22T08:49:57.710Z,18.99
2023-04-22T08:50:57.667Z,19.04
2023-04-22T08:51:57.713Z,19.10
2023-04-22T08:52:57.648Z,19.19
2023-04-22T08:53:57.677Z,19.25
2023-04-22T08:54:57.705Z,19.32
2023-04-22T08:55:57.666Z,19.40
2023-04-22T08:56:57.623Z,19.40
2023-04-22T08:57:57.625Z,19.44
2023-04-22T08:58:57.588Z,19.46
2023-04-22T08:59:57.616Z,19.44
2023-04-22T09:00:57.843Z,19.43
2023-04-22T09:01:57.619Z,19.47
2023-04-22T09:02:57.581Z,19.51
2023-04-22T09:03:57.646Z,19.59
2023-04-22T09:04:57.581Z,19.62
2023-04-22T09:05:57.537Z,19.68
2023-04-22T09:06:57.510Z,19.69
2023-04-22T09:07:57.512Z,19.76
2023-04-22T09:08:57.479Z,19.78
2023-04-22T09:09:57.498Z,19.83
2023-04-22T09:10:57.454Z,19.81
2023-04-22T09:11:57.471Z,19.83
2023-04-22T09:12:57.436Z,19.83
2023-04-22T09:13:57.466Z,19.80
2023-04-22T09:14:57.425Z,19.77
2023-04-22T09:15:59.876Z,19.81
2023-04-22T09:16:57.399Z,19.84
2023-04-22T09:17:57.462Z,19.78
2023-04-22T09:18:57.370Z,19.84
2023-04-22T09:19:57.382Z,19.91
2023-04-22T09:20:57.369Z,20.02
2023-04-22T09:21:58.303Z,20.13
2023-04-22T09:22:57.382Z,20.17
2023-04-22T09:23:57.362Z,20.20
2023-04-22T09:24:57.317Z,20.23
2023-04-22T09:25:57.341Z,20.23
2023-04-22T09:26:57.303Z,20.23
2023-04-22T09:27:57.285Z,20.23
2023-04-22T09:28:57.933Z,20.26
2023-04-22T09:29:57.286Z,20.21
2023-04-22T09:30:57.224Z,20.10
2023-04-22T09:31:57.249Z,20.08
2023-04-22T09:32:57.343Z,20.08
2023-04-22T09:33:57.288Z,20.02
2023-04-22T09:34:57.564Z,20.13
2023-04-22T09:35:57.232Z,20.16
2023-04-22T09:36:57.183Z,20.23
2023-04-22T09:37:57.189Z,20.23
2023-04-22T09:38:57.198Z,20.33
2023-04-22T09:39:57.186Z,20.38
2023-04-22T09:40:57.399Z,20.43
2023-04-22T09:41:57.326Z,20.47
2023-04-22T09:42:57.212Z,20.50
2023-04-22T09:43:57.547Z,20.52
2023-04-22T09:44:57.340Z,20.47
2023-04-22T09:45:57.088Z,20.38
2023-04-22T09:46:57.104Z,20.28
2023-04-22T09:47:57.143Z,20.23
2023-04-22T09:48:57.130Z,20.20
2023-04-22T09:49:57.153Z,20.13
2023-04-22T09:50:57.036Z,20.16
2023-04-22T09:51:57.273Z,20.06
2023-04-22T09:52:57.876Z,20.06
2023-04-22T09:53:57.286Z,20.06
2023-04-22T09:54:57.012Z,20.10
2023-04-22T09:55:57.306Z,20.14
2023-04-22T09:56:57.000Z,20.11
2023-04-22T09:57:57.013Z,20.11
2023-04-22T09:58:57.021Z,20.11
2023-04-22T09:59:57.055Z,20.05
2023-04-22T10:00:57.054Z,20.01
2023-04-22T10:01:56.914Z,19.98
2023-04-22T10:02:57.152Z,20.01
2023-04-22T10:03:56.977Z,20.08
2023-04-22T10:04:56.936Z,20.11
2023-04-22T10:05:56.882Z,20.18
2023-04-22T10:06:56.894Z,20.11
2023-04-22T10:07:56.880Z,20.06
2023-04-22T10:08:56.920Z,20.11
2023-04-22T10:09:56.865Z,20.03
2023-04-22T10:10:56.839Z,20.03
2023-04-22T10:11:56.819Z,19.99
2023-04-22T10:12:56.843Z,19.92
2023-04-22T10:13:56.780Z,19.96
2023-04-22T10:14:56.820Z,20.02
2023-04-22T10:15:56.978Z,20.05
2023-04-22T10:16:57.023Z,19.98
2023-04-22T10:17:56.956Z,19.95
2023-04-22T10:18:56.841Z,19.95
2023-04-22T10:19:57.093Z,19.96
2023-04-22T10:20:57.181Z,19.98
2023-04-22T10:21:56.703Z,19.98
2023-04-22T10:22:57.298Z,20.08
2023-04-22T10:23:58.151Z,20.11
2023-04-22T10:24:57.163Z,20.20
2023-04-22T10:25:56.949Z,20.21
2023-04-22T10:26:57.252Z,20.28
2023-04-22T10:27:56.826Z,20.33
2023-04-22T10:28:56.907Z,20.33
2023-04-22T10:29:57.849Z,20.33
2023-04-22T10:30:56.922Z,20.31
2023-04-22T10:31:56.764Z,20.26
2023-04-22T10:32:56.638Z,20.26
2023-04-22T10:33:56.748Z,20.24
2023-04-22T10:34:56.663Z,20.24
2023-04-22T10:35:56.699Z,20.20
2023-04-22T10:36:56.728Z,20.23
2023-04-22T10:37:56.629Z,20.17
2023-04-22T10:38:56.552Z,20.20
2023-04-22T10:39:56.542Z,20.17
2023-04-22T10:40:56.585Z,20.17
2023-04-22T10:41:56.627Z,20.26
2023-04-22T10:42:56.537Z,20.33
2023-04-22T10:43:56.593Z,20.42
2023-04-22T10:44:56.426Z,20.52
2023-04-22T10:45:56.732Z,20.64
2023-04-22T10:46:56.445Z,20.76
2023-04-22T10:47:56.392Z,20.80
2023-04-22T10:48:56.429Z,20.85
2023-04-22T10:49:57.582Z,20.89
2023-04-22T10:50:56.429Z,20.94
2023-04-22T10:51:56.419Z,20.97
2023-04-22T10:52:56.367Z,20.98
2023-04-22T10:53:56.530Z,20.99
2023-04-22T10:54:56.347Z,20.99
2023-04-22T10:55:56.340Z,20.89
2023-04-22T10:56:58.220Z,20.82
2023-04-22T10:57:56.475Z,20.59
2023-04-22T10:58:57.159Z,20.47
2023-04-22T10:59:56.480Z,20.48
2023-04-22T11:00:56.283Z,20.52
2023-04-22T11:01:56.308Z,20.58
2023-04-22T11:02:56.436Z,20.58
2023-04-22T11:03:56.279Z,20.57
2023-04-22T11:04:56.213Z,20.58
2023-04-22T11:05:56.202Z,20.54
2023-04-22T11:06:56.209Z,20.57
2023-04-22T11:07:56.180Z,20.58
2023-04-22T11:08:56.786Z,20.54
2023-04-22T11:09:56.147Z,20.57
2023-04-22T11:10:56.149Z,20.67
2023-04-22T11:11:56.953Z,20.82
2023-04-22T11:12:56.138Z,20.88
2023-04-22T11:13:56.129Z,21.06
2023-04-22T11:14:56.131Z,21.17
2023-04-22T11:15:56.127Z,21.38
2023-04-22T11:16:56.124Z,21.62
2023-04-22T11:17:56.159Z,21.83
2023-04-22T11:18:56.080Z,21.98
2023-04-22T11:19:56.042Z,22.03
2023-04-22T11:20:56.035Z,22.09
2023-04-22T11:21:56.007Z,22.07
2023-04-22T11:22:56.014Z,22.07
2023-04-22T11:23:55.980Z,22.05
2023-04-22T11:24:56.044Z,21.98
2023-04-22T11:25:55.972Z,21.83
2023-04-22T11:26:55.965Z,21.72
2023-04-22T11:27:55.944Z,21.64
2023-04-22T11:28:55.991Z,21.61
2023-04-22T11:29:55.919Z,21.61
2023-04-22T11:30:55.931Z,21.65
2023-04-22T11:31:55.946Z,21.58
2023-04-22T11:32:55.910Z,21.56
2023-04-22T11:33:55.862Z,21.62
2023-04-22T11:34:55.902Z,21.67
2023-04-22T11:35:55.852Z,21.69
2023-04-22T11:36:55.857Z,21.77
2023-04-22T11:37:55.840Z,21.79
2023-04-22T11:38:55.822Z,21.74
2023-04-22T11:40:10.140Z,21.74
2023-04-22T11:40:56.797Z,21.74
2023-04-22T11:41:55.770Z,21.74
2023-04-22T11:42:55.805Z,21.74
2023-04-22T11:43:55.797Z,21.77
2023-04-22T11:44:55.766Z,21.72
2023-04-22T11:45:55.870Z,21.65
2023-04-22T11:46:55.746Z,21.64
2023-04-22T11:47:55.746Z,21.54
2023-04-22T11:48:55.750Z,21.47
2023-04-22T11:49:55.708Z,21.43
2023-04-22T11:50:55.727Z,21.52
2023-04-22T11:51:55.668Z,21.54
2023-04-22T11:52:55.713Z,21.58
2023-04-22T11:53:55.653Z,21.56
2023-04-22T11:54:55.686Z,21.47
2023-04-22T11:55:55.635Z,21.40
2023-04-22T11:56:56.599Z,21.31
2023-04-22T11:57:55.596Z,21.27
2023-04-22T11:58:55.597Z,21.35
2023-04-22T11:59:55.587Z,21.40
2023-04-22T12:00:55.636Z,21.38
2023-04-22T12:01:55.574Z,21.28
2023-04-22T12:02:56.153Z,21.25
2023-04-22T12:03:55.576Z,21.17
2023-04-22T12:04:55.596Z,21.13
2023-04-22T12:05:55.532Z,21.03
2023-04-22T12:06:55.535Z,20.97
2023-04-22T12:07:55.505Z,20.95
2023-04-22T12:08:55.518Z,20.94
2023-04-22T12:09:55.472Z,20.94
2023-04-22T12:10:55.511Z,20.98
2023-04-22T12:11:55.471Z,21.09
2023-04-22T12:12:55.446Z,21.21
2023-04-22T12:13:55.596Z,21.34
2023-04-22T12:14:55.438Z,21.46
2023-04-22T12:15:55.406Z,21.56
2023-04-22T12:16:55.488Z,21.58
2023-04-22T12:17:55.518Z,21.53
2023-04-22T12:18:55.387Z,21.43
2023-04-22T12:19:55.345Z,21.42
2023-04-22T12:20:55.365Z,21.29
2023-04-22T12:21:55.416Z,21.27
2023-04-22T12:22:55.351Z,21.25
2023-04-22T12:23:55.323Z,21.28
2023-04-22T12:24:56.101Z,21.34
2023-04-22T12:25:55.341Z,21.40
2023-04-22T12:26:55.365Z,21.47
2023-04-22T12:27:55.356Z,21.53
2023-04-22T12:28:56.233Z,21.62
2023-04-22T12:29:55.382Z,21.74
2023-04-22T12:30:55.575Z,21.79
2023-04-22T12:31:55.228Z,21.79
2023-04-22T12:32:55.308Z,21.94
2023-04-22T12:33:55.407Z,22.06
2023-04-22T12:34:55.250Z,22.18
2023-04-22T12:35:55.186Z,22.24
2023-04-22T12:36:55.261Z,22.30
2023-04-22T12:37:55.197Z,22.33
2023-04-22T12:38:55.189Z,22.28
2023-04-22T12:39:55.183Z,22.17
2023-04-22T12:40:55.193Z,22.18
2023-04-22T12:41:55.134Z,22.22
2023-04-22T12:42:55.153Z,22.21
2023-04-22T12:43:55.283Z,22.17
2023-04-22T12:44:55.176Z,22.10
2023-04-22T12:45:55.276Z,21.90
2023-04-22T12:46:55.211Z,21.84
2023-04-22T12:47:55.063Z,21.88
2023-04-22T12:48:55.104Z,21.88
2023-04-22T12:49:55.046Z,21.88
2023-04-22T12:50:55.028Z,21.84
2023-04-22T12:51:55.001Z,21.80
2023-04-22T12:52:55.089Z,21.72
2023-04-22T12:53:54.971Z,21.68
2023-04-22T12:54:55.018Z,21.68
2023-04-22T12:55:55.128Z,21.72
2023-04-22T12:56:55.063Z,21.80
2023-04-22T12:57:55.027Z,21.84
2023-04-22T12:58:55.073Z,21.94
2023-04-22T12:59:54.901Z,21.94
2023-04-22T13:00:55.009Z,21.96
2023-04-22T13:01:55.485Z,22.02
2023-04-22T13:02:55.132Z,22.09
2023-04-22T13:03:55.024Z,22.20
2023-04-22T13:04:54.909Z,22.28
2023-04-22T13:05:55.722Z,22.37